Time;durP1;ratioP1;P1;durP2;ratioP2;P2;SDS_P1;SDS_P2;PMS_P1;PMS_P2;Temp;Humidity;BMP_temperature;BMP_pressure;BME280_temperature;BME280_humidity;BME280_pressure;Samples;Min_cycle;Max_cycle;Signal;HPM_P1;HPM_P2
2022/03/21 00:02:01;;;;;;;25.35;16.55;;;7.40;99.90;;;;;;5052290;28;20061;-69
2022/03/21 00:04:27;;;;;;;23.67;15.38;;;7.30;99.90;;;;;;5053352;28;20049;-70
2022/03/21 00:06:53;;;;;;;24.52;15.88;;;7.50;99.90;;;;;;5053369;28;20056;-70
2022/03/21 00:09:18;;;;;;;24.15;15.30;;;7.30;99.90;;;;;;5019228;28;20057;-70
2022/03/21 00:11:44;;;;;;;30.92;16.38;;;7.80;99.90;;;;;;5053198;28;20103;-71
2022/03/21 00:14:12;;;;;;;27.00;16.48;;;7.20;99.90;;;;;;5053414;28;20045;-70
2022/03/21 00:16:39;;;;;;;25.48;16.48;;;7.50;99.90;;;;;;5035516;28;20128;-70
2022/03/21 00:19:05;;;;;;;26.58;17.00;;;7.30;99.90;;;;;;5052809;28;20053;-70
2022/03/21 00:21:31;;;;;;;25.08;16.83;;;7.40;99.90;;;;;;5045082;28;20048;-70
2022/03/21 00:23:56;;;;;;;27.58;17.67;;;7.40;99.90;;;;;;5035457;28;20052;-69
2022/03/21 00:26:22;;;;;;;30.02;18.35;;;7.30;99.90;;;;;;5036454;28;20049;-70
2022/03/21 00:28:49;;;;;;;26.02;16.38;;;7.30;99.90;;;;;;5053272;28;20055;-70
2022/03/21 00:31:16;;;;;;;27.25;16.60;;;7.40;99.90;;;;;;5034709;28;20386;-70
2022/03/21 00:33:42;;;;;;;27.30;16.95;;;7.30;99.90;;;;;;5035510;28;20064;-70
2022/03/21 00:36:08;;;;;;;26.45;16.63;;;7.50;99.90;;;;;;5053031;28;20124;-70
2022/03/21 00:38:37;;;;;;;28.00;17.85;;;7.60;99.90;;;;;;5053061;28;20092;-70
2022/03/21 00:41:04;;;;;;;28.58;18.55;;;7.60;99.90;;;;;;5019479;28;20053;-70
2022/03/21 00:43:30;;;;;;;29.83;19.15;;;7.30;99.90;;;;;;5035462;28;20111;-69
2022/03/21 00:45:57;;;;;;;31.33;19.92;;;7.40;99.90;;;;;;5052977;28;20048;-69
2022/03/21 00:48:25;;;;;;;32.85;20.30;;;7.50;99.90;;;;;;5052942;28;20049;-69
2022/03/21 00:50:54;;;;;;;30.88;19.30;;;7.30;99.90;;;;;;5052956;28;20049;-70
2022/03/21 00:53:21;;;;;;;32.65;19.85;;;7.40;99.90;;;;;;5035075;28;20147;-70
2022/03/21 00:55:48;;;;;;;28.88;20.00;;;7.20;99.90;;;;;;5055462;28;20076;-70
2022/03/21 00:58:14;;;;;;;36.97;21.25;;;7.30;99.90;;;;;;5038861;28;20059;-70
2022/03/21 01:00:40;;;;;;;29.52;19.65;;;7.70;99.90;;;;;;5055542;28;20111;-70
2022/03/21 01:03:06;;;;;;;31.23;20.60;;;7.40;99.90;;;;;;5038551;28;20049;-70
2022/03/21 01:05:33;;;;;;;33.47;21.30;;;7.60;99.90;;;;;;5056317;28;20558;-70
2022/03/21 01:07:59;;;;;;;34.78;21.02;;;7.30;99.90;;;;;;5038638;28;20056;-70
2022/03/21 01:10:27;;;;;;;31.13;19.85;;;7.60;99.90;;;;;;5056213;28;20501;-70
2022/03/21 01:12:53;;;;;;;32.75;21.55;;;7.60;99.90;;;;;;5056222;28;20045;-70
2022/03/21 01:15:21;;;;;;;30.83;19.77;;;7.10;99.90;;;;;;5056122;28;20057;-70
2022/03/21 01:17:48;;;;;;;33.13;20.60;;;7.30;99.90;;;;;;5056081;28;20036;-70
2022/03/21 01:20:16;;;;;;;30.25;19.25;;;7.70;99.90;;;;;;5038482;28;20450;-71
2022/03/21 01:22:42;;;;;;;34.38;20.17;;;7.50;99.90;;;;;;5038502;28;20037;-71
2022/03/21 01:25:10;;;;;;;30.20;20.13;;;7.70;99.90;;;;;;5056321;28;20052;-70
2022/03/21 01:27:37;;;;;;;33.13;20.08;;;7.30;99.90;;;;;;5055810;28;20045;-70
2022/03/21 01:30:04;;;;;;;33.15;20.83;;;7.60;99.90;;;;;;5038005;28;20114;-69
2022/03/21 01:32:30;;;;;;;28.45;19.15;;;7.30;99.90;;;;;;5055664;28;20087;-70
2022/03/21 01:34:55;;;;;;;33.97;19.55;;;7.60;99.90;;;;;;5055777;28;20081;-70
2022/03/21 01:37:21;;;;;;;28.90;19.65;;;7.30;99.90;;;;;;5037923;28;20049;-70
2022/03/21 01:39:47;;;;;;;30.65;19.10;;;7.50;99.90;;;;;;5055829;28;20045;-70
2022/03/21 01:42:14;;;;;;;31.45;20.02;;;8.10;99.90;;;;;;5055825;28;20512;-70
2022/03/21 01:44:40;;;;;;;30.85;19.33;;;7.50;99.90;;;;;;5038062;28;20091;-70
2022/03/21 01:47:06;;;;;;;28.33;17.92;;;7.20;99.90;;;;;;5055585;28;20508;-70
2022/03/21 01:49:32;;;;;;;28.30;17.60;;;7.20;99.90;;;;;;5055521;28;20084;-70
2022/03/21 01:51:58;;;;;;;27.42;18.38;;;7.60;99.90;;;;;;5055259;28;20165;-70
2022/03/21 01:57:09;;;;;;;29.83;18.67;;;7.40;99.90;;;;;;5055401;28;20049;-70
2022/03/21 01:59:36;;;;;;;31.65;19.05;;;7.30;99.90;;;;;;5021246;28;20138;-70
2022/03/21 02:02:03;;;;;;;32.90;19.73;;;7.50;99.90;;;;;;5054600;28;20183;-70
2022/03/21 02:04:28;;;;;;;29.17;19.10;;;7.30;99.90;;;;;;5055611;28;20059;-70
2022/03/21 02:06:54;;;;;;;28.20;19.02;;;7.30;99.90;;;;;;5036385;28;20057;-70
2022/03/21 02:09:20;;;;;;;33.35;20.98;;;7.70;99.90;;;;;;5037291;28;20045;-70
2022/03/21 02:11:46;;;;;;;31.20;19.52;;;7.50;99.90;;;;;;5055526;28;20045;-70
2022/03/21 02:14:11;;;;;;;29.70;18.33;;;7.90;99.90;;;;;;5054973;28;20041;-70
2022/03/21 02:16:39;;;;;;;30.27;18.60;;;7.30;99.90;;;;;;5054981;28;20041;-70
2022/03/21 02:19:16;;;;;;;28.48;18.27;;;7.30;99.90;;;;;;5054818;28;20048;-70
2022/03/21 02:22:09;;;;;;;28.00;17.67;;;7.30;99.90;;;;;;5054976;28;20045;-70
2022/03/21 02:24:47;;;;;;;25.83;17.70;;;7.30;99.90;;;;;;5037381;28;20057;-70
2022/03/21 02:27:15;;;;;;;26.77;18.25;;;7.00;99.90;;;;;;5054813;28;20060;-70
2022/03/21 02:29:42;;;;;;;29.13;18.38;;;7.50;99.90;;;;;;5036875;28;20057;-70
2022/03/21 02:32:08;;;;;;;30.10;18.10;;;7.20;99.90;;;;;;5053987;28;20045;-71
2022/03/21 02:34:39;;;;;;;33.53;19.70;;;7.70;99.90;;;;;;5054645;28;20053;-71
2022/03/21 02:37:08;;;;;;;28.38;20.20;;;7.50;99.90;;;;;;5054801;28;20468;-70
2022/03/21 02:39:35;;;;;;;31.55;20.48;;;7.50;99.90;;;;;;5054555;28;20047;-70
2022/03/21 02:42:02;;;;;;;32.35;19.75;;;7.20;99.90;;;;;;5054439;28;20048;-70
2022/03/21 02:44:36;;;;;;;31.80;19.95;;;7.10;99.90;;;;;;5036590;28;20116;-70
2022/03/21 02:47:02;;;;;;;;;;;7.30;99.90;;;;;;5054782;28;20055;-70
2022/03/21 02:49:27;;;;;;;34.75;20.98;;;7.40;99.90;;;;;;5054495;28;19972;-70
2022/03/21 02:51:54;;;;;;;30.55;19.13;;;7.80;99.90;;;;;;5054267;28;20087;-70
2022/03/21 02:54:22;;;;;;;31.23;20.00;;;7.50;99.90;;;;;;5054309;28;20465;-70
2022/03/21 02:56:48;;;;;;;30.33;20.00;;;7.40;99.90;;;;;;5036656;28;20053;-70
2022/03/21 02:59:16;;;;;;;29.13;18.00;;;7.40;99.90;;;;;;5054222;28;20064;-70
2022/03/21 03:01:43;;;;;;;30.63;19.55;;;7.40;99.90;;;;;;5053431;28;20460;-70
2022/03/21 03:04:09;;;;;;;29.33;19.50;;;7.20;99.90;;;;;;5054107;28;20048;-71
2022/03/21 03:06:35;;;;;;;30.50;17.73;;;7.20;99.90;;;;;;5054029;28;20132;-70
2022/03/21 03:09:01;;;;;;;29.10;18.00;;;7.00;99.90;;;;;;5054046;28;20457;-70
2022/03/21 03:11:27;;;;;;;29.35;18.52;;;6.90;99.90;;;;;;5019971;28;20162;-71
2022/03/21 03:13:52;;;;;;;32.30;18.92;;;6.80;99.90;;;;;;5035880;28;20489;-70
2022/03/21 03:16:18;;;;;;;27.40;17.27;;;7.10;99.90;;;;;;5053865;28;20092;-71
2022/03/21 03:18:44;;;;;;;27.35;16.60;;;7.00;99.90;;;;;;5053172;28;20184;-71
2022/03/21 03:21:13;;;;;;;26.45;17.20;;;7.10;99.90;;;;;;5053807;28;20051;-71
2022/03/21 03:23:41;;;;;;;26.38;16.65;;;7.60;99.90;;;;;;5053529;28;20175;-71
2022/03/21 03:26:07;;;;;;;26.58;16.83;;;6.90;99.90;;;;;;5035817;28;20558;-71
2022/03/21 03:28:33;;;;;;;27.35;16.35;;;7.20;99.90;;;;;;5054407;28;20128;-71
2022/03/21 03:31:00;;;;;;;28.90;17.50;;;6.80;99.90;;;;;;5053091;28;20124;-70
2022/03/21 03:33:27;;;;;;;28.38;16.73;;;7.10;99.90;;;;;;5036794;28;20044;-70
2022/03/21 03:35:53;;;;;;;27.30;16.73;;;6.80;99.90;;;;;;5053606;28;20053;-70
2022/03/21 03:38:19;;;;;;;27.83;17.48;;;6.80;99.90;;;;;;5053589;28;20394;-71
2022/03/21 03:40:45;;;;;;;26.10;17.00;;;6.80;99.90;;;;;;5035757;28;20049;-71
2022/03/21 03:43:14;;;;;;;27.63;16.92;;;6.70;99.90;;;;;;5053181;28;20051;-71
2022/03/21 03:45:40;;;;;;;26.35;16.23;;;6.50;99.90;;;;;;5053522;28;20045;-70
2022/03/21 03:48:06;;;;;;;28.77;16.63;;;6.60;99.90;;;;;;5053688;28;20400;-71
2022/03/21 03:50:32;;;;;;;28.98;16.95;;;6.30;99.90;;;;;;5053498;28;20045;-70
2022/03/21 03:52:57;;;;;;;28.42;17.92;;;6.30;99.90;;;;;;5035604;28;20041;-70
2022/03/21 03:55:23;;;;;;;24.15;15.98;;;6.40;99.90;;;;;;5053680;28;20099;-70
2022/03/21 03:57:49;;;;;;;27.02;16.25;;;6.10;99.90;;;;;;5053478;28;20084;-71
2022/03/21 04:00:16;;;;;;;27.10;16.67;;;6.30;99.90;;;;;;5052858;28;20056;-70
2022/03/21 04:05:28;;;;;;;26.80;16.50;;;6.30;99.90;;;;;;5035990;28;20087;-70
2022/03/21 04:07:54;;;;;;;26.33;16.30;;;6.70;99.90;;;;;;5053383;28;20124;-71
2022/03/21 04:10:23;;;;;;;26.00;16.58;;;6.20;99.90;;;;;;5053301;28;20094;-70
2022/03/21 04:12:50;;;;;;;26.88;16.00;;;6.40;99.90;;;;;;5053215;28;20045;-71
2022/03/21 04:15:17;;;;;;;24.25;15.73;;;6.40;99.90;;;;;;5035508;28;20096;-70
2022/03/21 04:17:44;;;;;;;27.30;16.23;;;6.00;99.90;;;;;;5053228;28;20087;-70
2022/03/21 04:20:11;;;;;;;29.58;16.98;;;6.10;99.90;;;;;;5053219;28;20056;-70
2022/03/21 04:22:37;;;;;;;28.88;16.80;;;5.80;99.90;;;;;;5053812;28;20041;-70
2022/03/21 04:25:05;;;;;;;28.17;17.42;;;5.80;99.90;;;;;;5035621;28;20071;-70
2022/03/21 04:27:32;;;;;;;29.45;17.40;;;5.80;99.90;;;;;;5035597;28;20492;-70
2022/03/21 04:29:58;;;;;;;30.13;17.52;;;5.50;99.90;;;;;;5053663;28;20497;-69
2022/03/21 04:32:24;;;;;;;29.48;18.17;;;6.00;99.90;;;;;;5039351;28;20072;-70
2022/03/21 04:34:50;;;;;;;26.75;16.67;;;5.70;99.90;;;;;;5057115;28;20045;-70
2022/03/21 04:37:15;;;;;;;27.67;16.80;;;5.70;99.90;;;;;;5056960;28;20052;-70
2022/03/21 04:39:41;;;;;;;29.30;17.90;;;5.70;99.90;;;;;;5038787;28;20055;-70
2022/03/21 04:42:07;;;;;;;26.20;16.73;;;6.10;99.90;;;;;;5056757;28;20047;-70
2022/03/21 04:44:33;;;;;;;29.42;17.63;;;5.90;99.90;;;;;;5039163;28;20439;-70
2022/03/21 04:46:59;;;;;;;28.55;17.83;;;5.50;99.90;;;;;;5056708;28;20110;-70
2022/03/21 04:49:24;;;;;;;27.33;17.02;;;5.70;99.90;;;;;;5056623;28;20087;-70
2022/03/21 04:51:50;;;;;;;28.80;17.55;;;6.00;99.90;;;;;;5056551;28;20055;-70
2022/03/21 04:54:16;;;;;;;22.67;15.68;;;6.00;99.90;;;;;;5038962;28;20048;-71
2022/03/21 04:56:42;;;;;;;30.63;17.67;;;5.80;99.90;;;;;;5056441;28;20542;-70
2022/03/21 04:59:08;;;;;;;26.60;16.55;;;5.50;99.90;;;;;;5039133;28;20040;-70
2022/03/21 05:01:34;;;;;;;27.38;17.35;;;5.30;99.90;;;;;;5034545;28;20494;-70
2022/03/21 05:04:00;;;;;;;28.80;17.70;;;5.60;99.90;;;;;;5036422;28;20061;-71
2022/03/21 05:06:26;;;;;;;30.95;19.30;;;5.80;99.90;;;;;;5035239;28;20080;-70
2022/03/21 05:08:51;;;;;;;25.45;16.92;;;5.60;99.90;;;;;;5036455;28;20049;-70
2022/03/21 05:11:17;;;;;;;24.67;16.50;;;6.10;99.90;;;;;;5035184;28;20494;-70
2022/03/21 05:13:43;;;;;;;24.45;15.55;;;5.50;99.90;;;;;;5036227;28;20184;-70
2022/03/21 05:16:09;;;;;;;26.80;16.58;;;5.40;99.90;;;;;;5036245;28;20048;-70
2022/03/21 05:18:34;;;;;;;29.85;16.42;;;5.10;99.90;;;;;;5035831;28;20045;-70
2022/03/21 05:21:05;;;;;;;26.80;17.00;;;5.30;99.90;;;;;;5036126;28;20049;-70
2022/03/21 05:31:43;;;;;;;25.90;16.77;;;5.00;99.90;;;;;;5035371;28;20053;-70
2022/03/21 05:36:54;;;;;;;26.73;16.13;;;4.70;99.90;;;;;;5035937;28;20054;-70
2022/03/21 05:39:21;;;;;;;27.42;16.88;;;4.70;99.90;;;;;;5035828;28;20048;-70
2022/03/21 05:41:48;;;;;;;26.70;16.70;;;5.10;99.90;;;;;;5035379;28;20124;-70
2022/03/21 05:44:14;;;;;;;33.85;18.52;;;4.70;99.90;;;;;;5035502;28;20145;-70
2022/03/21 05:46:40;;;;;;;30.27;17.88;;;5.90;99.90;;;;;;5034970;28;20071;-70
2022/03/21 05:49:06;;;;;;;30.08;18.08;;;4.90;99.90;;;;;;5035677;28;20046;-70
2022/03/21 05:51:34;;;;;;;27.50;17.60;;;4.80;99.90;;;;;;5035564;28;20132;-70
2022/03/21 05:54:02;;;;;;;26.02;17.08;;;5.20;99.90;;;;;;5035882;28;20046;-71
2022/03/21 05:56:29;;;;;;;30.63;17.48;;;4.60;99.90;;;;;;5035516;28;20044;-70
2022/03/21 05:58:56;;;;;;;27.98;17.77;;;4.50;99.90;;;;;;5034529;28;20056;-70
2022/03/21 06:01:22;;;;;;;32.13;18.60;;;5.00;99.90;;;;;;5033614;28;20168;-71
2022/03/21 06:03:55;;;;;;;27.05;16.85;;;4.40;99.90;;;;;;5034430;28;20061;-70
2022/03/21 06:06:22;;;;;;;29.75;17.58;;;5.40;99.90;;;;;;5034580;28;20049;-70
2022/03/21 06:08:49;;;;;;;30.80;18.02;;;4.50;99.90;;;;;;5035487;28;20449;-70
2022/03/21 06:11:15;;;;;;;31.00;19.15;;;5.00;99.90;;;;;;5033988;28;20041;-70
2022/03/21 06:13:43;;;;;;;33.55;20.35;;;4.50;99.90;;;;;;5035096;28;20072;-70
2022/03/21 06:16:10;;;;;;;28.92;17.92;;;4.50;99.90;;;;;;5033936;28;20048;-70
2022/03/21 06:18:37;;;;;;;31.40;18.90;;;4.40;99.90;;;;;;5035010;28;20052;-70
2022/03/21 06:21:05;;;;;;;32.95;19.65;;;4.60;99.90;;;;;;5035041;28;20046;-70
2022/03/21 06:23:32;;;;;;;34.42;18.17;;;5.00;99.90;;;;;;5034937;28;20050;-71
2022/03/21 06:25:58;;;;;;;27.52;18.00;;;5.10;99.90;;;;;;5035175;28;20099;-70
2022/03/21 06:28:27;;;;;;;26.25;17.20;;;4.70;99.90;;;;;;5033648;28;20060;-70
2022/03/21 06:30:53;;;;;;;28.77;17.40;;;4.50;99.90;;;;;;5033222;28;20054;-70
2022/03/21 06:33:29;;;;;;;29.00;17.98;;;4.90;99.90;;;;;;5033568;28;20049;-70
2022/03/21 06:35:56;;;;;;;30.65;18.92;;;4.60;99.90;;;;;;5034029;28;20497;-70
2022/03/21 06:38:22;;;;;;;31.73;18.55;;;5.90;99.90;;;;;;5035259;28;20104;-70
2022/03/21 06:40:48;;;;;;;28.65;17.88;;;5.10;99.90;;;;;;5034682;28;20052;-70
2022/03/21 06:43:15;;;;;;;27.70;18.05;;;4.70;99.90;;;;;;5034609;28;20056;-70
2022/03/21 06:45:42;;;;;;;27.75;17.30;;;5.40;99.90;;;;;;5033946;28;20057;-71
2022/03/21 06:48:11;;;;;;;28.42;16.88;;;5.00;99.90;;;;;;5034582;28;20045;-70
2022/03/21 06:50:37;;;;;;;31.05;17.58;;;4.90;99.90;;;;;;5034536;28;20482;-70
2022/03/21 06:53:02;;;;;;;27.10;16.80;;;5.00;99.90;;;;;;5033440;28;20120;-70
2022/03/21 06:55:28;;;;;;;29.73;18.08;;;5.20;99.90;;;;;;5034358;28;20045;-70
2022/03/21 06:57:55;;;;;;;24.65;15.65;;;5.60;99.90;;;;;;5033365;28;20386;-71
2022/03/21 07:00:21;;;;;;;25.00;14.80;;;5.50;99.90;;;;;;5032589;28;20120;-69
2022/03/21 07:02:47;;;;;;;25.23;14.95;;;5.80;99.90;;;;;;5050265;28;20140;-70
2022/03/21 07:05:12;;;;;;;27.13;15.20;;;5.50;99.90;;;;;;5054128;28;20045;-70
2022/03/21 07:07:38;;;;;;;22.70;14.10;;;5.20;99.90;;;;;;5054024;28;20045;-70
2022/03/21 07:10:05;;;;;;;24.85;15.52;;;5.70;99.90;;;;;;5053693;28;20041;-70
2022/03/21 07:12:34;;;;;;;26.50;15.30;;;5.40;99.90;;;;;;5054530;28;20424;-70
2022/03/21 07:15:00;;;;;;;28.42;15.38;;;5.80;99.90;;;;;;5053929;28;20044;-70
2022/03/21 07:17:26;;;;;;;25.58;15.32;;;6.10;99.90;;;;;;5054004;28;20048;-70
2022/03/21 07:19:52;;;;;;;29.35;15.68;;;5.90;99.90;;;;;;5053956;28;20553;-70
2022/03/21 07:22:18;;;;;;;24.95;15.43;;;6.30;99.90;;;;;;5053806;28;20489;-70
2022/03/21 07:24:44;;;;;;;23.95;13.88;;;5.90;99.90;;;;;;5053809;28;20045;-70
2022/03/21 07:27:12;;;;;;;23.88;14.50;;;6.00;99.90;;;;;;5053734;28;20491;-70
2022/03/21 07:29:38;;;;;;;23.83;14.25;;;6.60;99.90;;;;;;5053696;28;20048;-71
2022/03/21 07:32:04;;;;;;;23.58;13.98;;;6.50;99.90;;;;;;5035385;28;20538;-70
2022/03/21 07:34:30;;;;;;;22.35;13.90;;;6.20;99.90;;;;;;5053923;28;20053;-70
2022/03/21 07:36:56;;;;;;;20.45;12.73;;;6.30;99.90;;;;;;5035728;28;20132;-70
2022/03/21 07:39:22;;;;;;;22.35;13.63;;;6.60;99.90;;;;;;5035935;28;20492;-70
2022/03/21 07:41:48;;;;;;;20.52;12.70;;;6.50;99.90;;;;;;5053841;28;20132;-70
2022/03/21 07:47:17;;;;;;;20.27;12.32;;;6.60;99.90;;;;;;5053490;28;20094;-70
2022/03/21 07:47:17;;;;;;;22.35;12.15;;;6.50;99.90;;;;;;5053436;28;20045;-71
2022/03/21 07:49:46;;;;;;;19.10;11.98;;;6.90;99.90;;;;;;5053445;28;20045;-70
2022/03/21 07:52:18;;;;;;;19.25;11.80;;;6.60;99.90;;;;;;5019053;28;20087;-70
2022/03/21 07:54:46;;;;;;;23.08;12.32;;;6.80;99.90;;;;;;5053566;28;20059;-70
2022/03/21 07:57:12;;;;;;;20.83;12.10;;;6.70;99.90;;;;;;5019568;28;20053;-70
2022/03/21 07:59:38;;;;;;;18.77;12.10;;;6.90;99.90;;;;;;5035539;28;20045;-71
2022/03/21 08:02:05;;;;;;;19.58;11.98;;;6.80;99.90;;;;;;5052318;28;20072;-71
2022/03/21 08:04:33;;;;;;;20.40;11.95;;;6.70;99.90;;;;;;5055696;28;20138;-71
2022/03/21 08:06:59;;;;;;;17.00;11.25;;;7.00;99.90;;;;;;5057422;28;20052;-71
2022/03/21 08:09:27;;;;;;;19.60;11.60;;;7.20;99.90;;;;;;5039448;28;20199;-73
2022/03/21 08:11:54;;;;;;;18.90;11.68;;;7.10;99.90;;;;;;5023391;28;20060;-71
2022/03/21 08:14:21;;;;;;;20.85;11.77;;;7.30;99.90;;;;;;5057328;28;20406;-71
2022/03/21 08:16:46;;;;;;;18.52;12.48;;;7.70;99.90;;;;;;5057654;28;20049;-71
2022/03/21 08:19:12;;;;;;;19.73;11.27;;;7.30;99.90;;;;;;5057154;28;20109;-70
2022/03/21 08:21:37;;;;;;;21.27;11.35;;;7.60;99.90;;;;;;5057159;28;20045;-71
2022/03/21 08:24:04;;;;;;;18.38;10.77;;;7.20;99.90;;;;;;5057183;28;20119;-71
2022/03/21 08:26:29;;;;;;;17.00;11.40;;;7.20;99.90;;;;;;5057381;28;20103;-71
2022/03/21 08:28:55;;;;;;;19.83;11.18;;;7.30;99.90;;;;;;5057638;28;20049;-70
2022/03/21 08:31:21;;;;;;;16.73;10.90;;;7.80;99.90;;;;;;5038940;28;20532;-70
2022/03/21 08:33:47;;;;;;;19.55;11.75;;;7.60;99.90;;;;;;5022628;28;20465;-71
2022/03/21 08:36:13;;;;;;;18.15;12.05;;;7.70;99.90;;;;;;5056928;28;20044;-71
2022/03/21 08:38:40;;;;;;;19.00;11.77;;;7.70;99.90;;;;;;5057042;28;20131;-72
2022/03/21 08:41:06;;;;;;;16.75;10.90;;;7.80;99.90;;;;;;5040739;28;20064;-73
2022/03/21 08:43:32;;;;;;;19.17;10.98;;;7.60;99.90;;;;;;5053988;28;20042;-74
2022/03/21 08:45:58;;;;;;;17.40;10.85;;;7.40;99.90;;;;;;5054580;28;20128;-71
2022/03/21 08:49:23;;;;;;;16.65;11.35;;;7.70;99.90;;;;;;5045432;28;20060;-69
2022/03/21 08:51:10;;;;;;;18.48;11.70;;;8.00;99.90;;;;;;5056188;28;20041;-72
2022/03/21 08:53:36;;;;;;;19.40;11.65;;;7.70;99.90;;;;;;5040924;28;20099;-72
2022/03/21 08:56:02;;;;;;;20.55;12.20;;;7.90;99.90;;;;;;5026517;28;20042;-71
2022/03/21 08:58:28;;;;;;;18.92;11.50;;;7.90;99.90;;;;;;5051988;28;20044;-70
2022/03/21 09:00:53;;;;;;;18.90;11.68;;;8.10;99.90;;;;;;5042288;28;20501;-69
2022/03/21 09:03:20;;;;;;;18.67;11.18;;;8.00;99.90;;;;;;5022189;28;20046;-70
2022/03/21 09:05:46;;;;;;;17.10;11.15;;;8.20;99.90;;;;;;5040739;28;20081;-69
2022/03/21 09:08:12;;;;;;;18.52;11.07;;;8.20;99.90;;;;;;5038665;28;20512;-70
2022/03/21 09:10:38;;;;;;;19.25;11.88;;;8.00;99.90;;;;;;5030407;28;20053;-70
2022/03/21 09:13:05;;;;;;;18.20;11.75;;;8.10;99.90;;;;;;5043916;28;20075;-70
2022/03/21 09:15:31;;;;;;;17.85;11.02;;;8.20;99.90;;;;;;5039934;28;20060;-69
2022/03/21 09:17:57;;;;;;;18.23;11.15;;;8.20;99.90;;;;;;5027676;28;20095;-70
2022/03/21 09:20:23;;;;;;;21.00;11.50;;;8.30;99.90;;;;;;5037811;28;20148;-69
2022/03/21 09:22:49;;;;;;;19.13;11.88;;;8.50;99.90;;;;;;5042913;28;20509;-69
2022/03/21 09:25:17;;;;;;;18.98;11.73;;;8.30;99.90;;;;;;5018438;28;20057;-69
2022/03/21 09:27:42;;;;;;;21.50;12.57;;;8.90;99.90;;;;;;5032586;28;20501;-69
2022/03/21 09:30:10;;;;;;;17.48;11.75;;;8.50;99.90;;;;;;5048008;28;20090;-69
2022/03/21 09:32:36;;;;;;;17.98;11.45;;;8.40;99.90;;;;;;5040192;28;20047;-70
2022/03/21 09:35:03;;;;;;;20.58;11.73;;;8.60;99.90;;;;;;5035099;28;20483;-71
2022/03/21 09:37:28;;;;;;;19.85;12.32;;;8.60;99.90;;;;;;5047004;28;20052;-71
2022/03/21 09:39:55;;;;;;;20.48;12.05;;;8.90;99.90;;;;;;5040563;28;20876;-72
2022/03/21 09:42:21;;;;;;;24.08;12.82;;;8.80;99.90;;;;;;5033364;28;20061;-71
2022/03/21 09:44:52;;;;;;;18.88;12.57;;;9.00;99.90;;;;;;5031360;28;20059;-70
2022/03/21 09:50:11;;;;;;;21.42;11.88;;;9.10;99.90;;;;;;5043305;28;20060;-70
2022/03/21 09:52:38;;;;;;;20.50;12.30;;;9.00;99.90;;;;;;5043551;28;20034;-69
2022/03/21 09:55:08;;;;;;;17.60;11.98;;;9.10;99.90;;;;;;5031793;28;20059;-69
2022/03/21 09:57:35;;;;;;;18.95;11.98;;;9.10;99.90;;;;;;5036950;28;20057;-69
2022/03/21 10:00:01;;;;;;;17.52;11.15;;;9.40;99.90;;;;;;5042110;28;20513;-69
2022/03/21 10:02:27;;;;;;;19.38;11.65;;;9.20;99.90;;;;;;5044547;28;20049;-69
2022/03/21 10:04:53;;;;;;;21.05;12.23;;;9.20;99.90;;;;;;5042671;28;20086;-69
2022/03/21 10:07:28;;;;;;;19.40;11.38;;;9.30;99.90;;;;;;5042395;28;20045;-70
2022/03/21 10:10:16;;;;;;;17.80;11.27;;;9.40;99.90;;;;;;5043665;28;20049;-68
2022/03/21 10:12:42;;;;;;;19.58;12.38;;;9.40;99.90;;;;;;5047692;28;20052;-69
2022/03/21 10:15:09;;;;;;;19.33;11.85;;;9.50;99.90;;;;;;5039582;28;20049;-69
2022/03/21 10:17:35;;;;;;;18.02;11.43;;;9.60;99.90;;;;;;5042208;28;20144;-70
2022/03/21 10:20:02;;;;;;;19.10;12.02;;;9.90;99.90;;;;;;5038348;28;20071;-69
2022/03/21 10:22:37;;;;;;;16.58;12.02;;;9.60;99.90;;;;;;5045448;28;20590;-70
2022/03/21 10:25:04;;;;;;;20.27;12.88;;;9.70;99.90;;;;;;5051071;28;20072;-70
2022/03/21 10:27:40;;;;;;;19.45;12.35;;;9.80;99.90;;;;;;5035226;28;20473;-69
2022/03/21 10:30:18;;;;;;;20.75;12.82;;;9.80;99.90;;;;;;5044657;28;20044;-69
2022/03/21 10:32:46;;;;;;;19.30;11.98;;;9.90;99.90;;;;;;5041691;28;20124;-70
2022/03/21 10:35:20;;;;;;;18.67;11.90;;;10.20;99.90;;;;;;5036396;28;20377;-71
2022/03/21 10:37:51;;;;;;;21.00;13.10;;;10.00;99.90;;;;;;5035922;28;20455;-69
2022/03/21 10:40:28;;;;;;;19.42;11.57;;;10.20;99.90;;;;;;5045817;28;20145;-69
2022/03/21 10:43:00;;;;;;;18.67;12.38;;;10.10;99.90;;;;;;5029695;28;20076;-69
2022/03/21 10:45:34;;;;;;;20.60;13.43;;;10.10;99.90;;;;;;5040883;28;20091;-70
2022/03/21 10:48:19;;;;;;;23.33;13.75;;;10.40;99.90;;;;;;5100985;27;20520;-69
2022/03/21 10:50:49;;;;;;;20.50;12.93;;;10.20;99.90;;;;;;5104489;28;20048;-71
2022/03/21 10:53:24;;;;;;;22.23;14.18;;;10.50;99.90;;;;;;5100241;28;20131;-69
2022/03/21 10:56:04;;;;;;;21.85;15.85;;;10.30;99.90;;;;;;5106573;28;20052;-68
2022/03/21 10:58:50;;;;;;;22.65;14.63;;;10.40;99.90;;;;;;5103203;28;20044;-69
2022/03/21 11:01:19;;;;;;;24.63;15.48;;;10.50;99.90;;;;;;5106247;28;20059;-69
2022/03/21 11:03:50;;;;;;;23.90;15.13;;;10.50;99.90;;;;;;5103509;28;20122;-69
2022/03/21 11:06:17;;;;;;;22.13;14.70;;;10.70;99.90;;;;;;5101821;28;20048;-69
2022/03/21 11:08:47;;;;;;;23.25;14.32;;;11.00;99.90;;;;;;5103119;28;20051;-70
2022/03/21 11:11:13;;;;;;;24.85;14.80;;;10.70;99.90;;;;;;5101465;28;20506;-69
2022/03/21 11:13:39;;;;;;;21.35;14.77;;;10.80;99.90;;;;;;5102300;28;20487;-71
2022/03/21 11:16:06;;;;;;;23.13;15.32;;;10.90;99.90;;;;;;5104199;28;20040;-70
2022/03/21 11:18:32;;;;;;;20.10;14.25;;;11.20;99.90;;;;;;5103321;28;20043;-70
2022/03/21 11:20:59;;;;;;;26.73;15.18;;;10.90;99.90;;;;;;5094016;28;20052;-69
2022/03/21 11:23:28;;;;;;;21.23;13.75;;;11.00;99.90;;;;;;5095756;28;20048;-69
2022/03/21 11:26:11;;;;;;;23.90;13.93;;;11.00;99.90;;;;;;5099015;28;20044;-70
2022/03/21 11:29:01;;;;;;;23.35;14.88;;;11.10;99.90;;;;;;5100721;28;20055;-69
2022/03/21 11:31:56;;;;;;;21.95;13.48;;;11.20;99.90;;;;;;5098132;28;20048;-68
2022/03/21 11:34:47;;;;;;;22.90;14.02;;;11.20;99.90;;;;;;5093870;28;20061;-70
2022/03/21 11:37:43;;;;;;;23.27;15.40;;;11.20;99.90;;;;;;5102441;28;20048;-70
2022/03/21 11:40:29;;;;;;;20.15;13.30;;;11.20;99.90;;;;;;5094316;28;20085;-70
2022/03/21 11:43:15;;;;;;;20.23;13.75;;;11.40;99.90;;;;;;5091571;28;20047;-69
2022/03/21 11:45:41;;;;;;;19.08;12.88;;;11.40;99.90;;;;;;5071908;28;20529;-69
2022/03/21 11:48:19;;;;;;;19.83;13.32;;;11.40;99.90;;;;;;5100315;28;20756;-69
2022/03/21 11:50:50;;;;;;;20.70;13.48;;;11.60;99.90;;;;;;5100845;28;20040;-70
2022/03/21 11:53:26;;;;;;;21.80;14.77;;;11.50;99.90;;;;;;5098881;28;20052;-69
2022/03/21 11:55:52;;;;;;;20.70;13.68;;;11.70;99.90;;;;;;5100190;28;20075;-69
2022/03/21 11:58:39;;;;;;;21.35;13.15;;;11.70;99.90;;;;;;5091667;28;20142;-70
2022/03/21 12:01:12;;;;;;;20.30;13.35;;;11.80;99.90;;;;;;5084535;28;20077;-70
2022/03/21 12:03:38;;;;;;;;;;;11.70;99.90;;;;;;5086426;28;20036;-74
2022/03/21 12:06:24;;;;;;;21.55;13.50;;;11.70;99.90;;;;;;5086605;28;19924;-70
2022/03/21 12:08:55;;;;;;;20.63;12.68;;;11.90;99.90;;;;;;5080225;28;20158;-70
2022/03/21 12:11:39;;;;;;;19.63;12.52;;;12.00;99.90;;;;;;5088050;28;20151;-70
2022/03/21 12:14:29;;;;;;;23.90;14.43;;;12.00;99.90;;;;;;5085686;28;20048;-71
2022/03/21 12:17:00;;;;;;;20.02;13.20;;;12.20;99.90;;;;;;5080569;28;20561;-70
2022/03/21 12:19:55;;;;;;;22.02;13.38;;;12.20;99.90;;;;;;5087453;28;20460;-71
2022/03/21 12:22:30;;;;;;;20.90;13.30;;;12.20;99.90;;;;;;5086353;28;20043;-70
2022/03/21 12:25:01;;;;;;;19.70;13.32;;;12.30;99.90;;;;;;5086734;28;20050;-71
2022/03/21 12:27:39;;;;;;;19.10;13.05;;;12.20;99.90;;;;;;5087739;28;20127;-70
2022/03/21 12:33:05;;;;;;;19.52;13.05;;;12.40;99.90;;;;;;5082914;28;20059;-71
2022/03/21 12:35:31;;;;;;;21.83;13.30;;;12.40;99.90;;;;;;5080984;28;20071;-71
2022/03/21 12:38:22;;;;;;;22.50;13.98;;;12.40;99.90;;;;;;5080979;28;20168;-69
2022/03/21 12:40:51;;;;;;;19.80;12.95;;;12.40;99.90;;;;;;5090366;28;20139;-71
2022/03/21 12:43:17;;;;;;;18.23;13.20;;;12.50;99.90;;;;;;5078480;28;20036;-70
2022/03/21 12:45:44;;;;;;;19.13;13.20;;;12.50;99.90;;;;;;5087854;28;20096;-72
2022/03/21 12:48:13;;;;;;;20.95;13.48;;;12.70;99.90;;;;;;5083830;28;20144;-72
2022/03/21 12:50:39;;;;;;;19.45;12.55;;;12.70;99.90;;;;;;5081922;28;20485;-72
2022/03/21 12:53:08;;;;;;;19.27;12.85;;;12.70;99.90;;;;;;5084504;28;20404;-71
2022/03/21 12:55:35;;;;;;;18.90;14.05;;;12.80;99.90;;;;;;5084238;28;20508;-72
2022/03/21 12:58:06;;;;;;;19.92;13.48;;;12.60;99.90;;;;;;5087472;28;20047;-73
2022/03/21 13:00:35;;;;;;;22.08;13.38;;;12.20;99.90;;;;;;5076062;28;20097;-72
2022/03/21 13:03:12;;;;;;;20.17;13.18;;;12.90;99.90;;;;;;5090839;28;20064;-72
2022/03/21 13:11:50;;;;;;;20.65;13.40;;;13.00;99.90;;;;;;5092097;28;20117;-73